This is the latest recevied weather packets stored in our database for station/object IR1CH-3. If no packets are shown the sender has not sent any weather packets the latest 10 day(s).
| Time | Temp. | Humidity | Pressure | Rain* | Wind** | Luminosity | Snow |
|---|---|---|---|---|---|---|---|
| 1788343745 | 26.67° C | 99% | 1017.8 hPa | - | - | - | - |
| 1788341945 | 31.11° C | 82% | 1017.8 hPa | - | - | - | - |
| 1788340145 | 27.22° C | 99% | 1017.7 hPa | - | - | - | - |
| 1788338344 | 26.11° C | 99% | 1017.7 hPa | - | - | - | - |
| 1788336544 | 25.56° C | 99% | 1017.6 hPa | - | - | - | - |
| 1788334744 | 25° C | 99% | 1017.4 hPa | - | - | - | - |
| 1788332943 | 25° C | 99% | 1017.1 hPa | - | - | - | - |
| 1788331143 | 25° C | 92% | 1016.8 hPa | - | - | - | - |
| 1788329343 | 25° C | 92% | 1016.7 hPa | - | - | - | - |
| 1788327542 | 23.89° C | 98% | 1016.9 hPa | - | - | - | - |
| 1788325742 | 23.33° C | 99% | 1016.7 hPa | - | - | - | - |
| 1788323942 | 23.33° C | 99% | 1016.5 hPa | - | - | - | - |
| 1788302337 | 25° C | 96% | 1016.6 hPa | - | - | - | - |
| 1788300536 | 25° C | 98% | 1016.7 hPa | - | - | - | - |
| 1788298736 | 26.11° C | 98% | 1016.7 hPa | - | - | - | - |
| 1788296936 | 25.56° C | 99% | 1016.6 hPa | - | - | - | - |
| 1788295135 | 25.56° C | 99% | 1016.5 hPa | - | - | - | - |
| 1788293335 | 26.67° C | 98% | 1016.3 hPa | - | - | - | - |
| 1788289734 | 26.67° C | 99% | 1016.1 hPa | - | - | - | - |
| 1788287934 | 25.56° C | 99% | 1015.8 hPa | - | - | - | - |
| 1788286133 | 25.56° C | 99% | 1015.8 hPa | - | - | - | - |
| 1788284333 | 26.11° C | 99% | 1015.4 hPa | - | - | - | - |
| 1788282533 | 26.11° C | 99% | 1015.5 hPa | - | - | - | - |
| 1788280732 | 26.67° C | 99% | 1015.6 hPa | - | - | - | - |
| 1788278932 | 26.67° C | 99% | 1015.2 hPa | - | - | - | - |
* Rain since midnight (hover to see other rain measurements)
** Current wind speed in m/s (hover to see current wind gust speed)